Time;durP1;ratioP1;P1;durP2;ratioP2;P2;SDS_P1;SDS_P2;PMS_P1;PMS_P2;Temp;Humidity;BMP_temperature;BMP_pressure;BME280_temperature;BME280_humidity;BME280_pressure;Samples;Min_cycle;Max_cycle;Signal;HPM_P1;HPM_P2
2021/03/28 00:01:34;;;;;;;62.13;29.35;;;;;;;8.23;68.80;102502.48;1785836;80;21320;-74
2021/03/28 00:04:10;;;;;;;62.70;31.33;;;;;;;8.27;68.94;102502.38;1779376;80;21337;-73
2021/03/28 00:06:56;;;;;;;66.40;31.42;;;;;;;8.29;68.93;102502.19;1786022;80;21332;-72
2021/03/28 00:09:41;;;;;;;56.68;29.12;;;;;;;8.27;68.84;102499.62;1806639;79;21328;-73
2021/03/28 00:12:33;;;;;;;61.53;29.77;;;;;;;8.21;68.91;102500.97;1817455;79;21831;-74
2021/03/28 00:15:14;;;;;;;65.80;30.55;;;;;;;8.19;69.09;102499.78;1818285;79;21257;-72
2021/03/28 00:18:09;;;;;;;64.92;30.45;;;;;;;8.18;69.21;102501.32;1818277;79;21177;-73
2021/03/28 00:20:43;;;;;;;62.13;31.85;;;;;;;8.18;69.19;102495.27;1818241;79;21267;-75
2021/03/28 00:23:28;;;;;;;64.17;31.17;;;;;;;8.23;69.23;102491.92;1818290;79;21166;-76
2021/03/28 00:26:18;;;;;;;67.42;32.48;;;;;;;8.25;69.08;102495.34;1786913;79;21328;-74
2021/03/28 00:29:12;;;;;;;67.10;31.87;;;;;;;8.22;69.01;102485.56;1780499;79;21380;-74
2021/03/28 00:32:07;;;;;;;61.50;30.52;;;;;;;8.19;69.01;102487.33;1818229;79;21197;-70
2021/03/28 00:34:45;;;;;;;64.25;30.35;;;;;;;8.10;68.97;102486.26;1818462;79;21395;-77
2021/03/28 00:37:26;;;;;;;57.20;27.32;;;;;;;7.99;69.10;102482.64;1818517;79;21249;-77
2021/03/28 00:40:12;;;;;;;65.90;30.62;;;;;;;7.85;69.35;102478.91;1812778;79;21166;-74
2021/03/28 00:42:51;;;;;;;70.40;33.67;;;;;;;7.67;69.69;102479.93;1797763;79;21178;-70
2021/03/28 00:45:44;;;;;;;60.78;31.68;;;;;;;7.56;70.14;102478.20;1783199;80;21332;-71
2021/03/28 00:48:30;;;;;;;71.92;33.75;;;;;;;7.58;70.38;102482.98;1783338;80;21234;-72
2021/03/28 00:51:17;;;;;;;66.10;34.33;;;;;;;7.56;70.56;102482.34;1786183;80;21328;-76
2021/03/28 00:54:07;;;;;;;67.67;32.00;;;;;;;7.56;70.72;102489.25;1783479;80;21336;-73
2021/03/28 00:56:55;;;;;;;62.38;31.52;;;;;;;7.62;70.87;102482.94;1779728;80;21323;-73
2021/03/28 00:59:40;;;;;;;72.10;34.70;;;;;;;7.68;71.08;102483.02;1783473;80;21364;-73
2021/03/28 01:02:28;;;;;;;69.32;33.13;;;;;;;7.74;71.02;102479.46;1796944;79;21826;-73
2021/03/28 01:05:39;;;;;;;62.80;33.05;;;;;;;7.74;70.93;102485.50;1704194;84;21292;-72
2021/03/28 01:08:28;;;;;;;73.22;34.63;;;;;;;7.68;71.06;102485.78;1763395;81;21391;-73
2021/03/28 01:11:40;;;;;;;71.25;34.25;;;;;;;7.65;71.08;102484.77;1792144;78;21236;-74
2021/03/28 01:14:38;;;;;;;76.65;33.28;;;;;;;7.58;70.99;102483.86;1777721;80;21249;-74
2021/03/28 01:17:32;;;;;;;73.72;33.28;;;;;;;7.50;71.26;102484.00;1817698;79;21395;-74
2021/03/28 01:20:45;;;;;;;67.17;32.63;;;;;;;7.49;71.41;102479.53;1811826;79;21869;-74
2021/03/28 01:23:26;;;;;;;70.17;33.35;;;;;;;7.47;71.34;102478.84;1817872;79;21396;-74
2021/03/28 01:26:32;;;;;;;71.92;34.20;;;;;;;7.48;71.34;102479.17;1810245;79;21371;-76
2021/03/28 01:29:30;;;;;;;69.67;34.35;;;;;;;7.49;71.27;102480.91;1817887;79;21312;-73
2021/03/28 01:32:10;;;;;;;69.05;34.38;;;;;;;7.45;71.21;102486.48;1817653;79;21861;-72
2021/03/28 01:34:53;;;;;;;70.42;30.95;;;;;;;7.40;71.16;102493.12;1789775;79;21332;-77
2021/03/28 01:37:34;;;;;;;62.98;32.05;;;;;;;7.35;71.29;102488.70;1817850;79;21213;-71
2021/03/28 01:40:14;;;;;;;72.47;34.13;;;;;;;7.38;71.45;102489.38;1814088;79;21331;-72
2021/03/28 01:43:16;;;;;;;63.33;33.50;;;;;;;7.36;71.40;102489.02;1817709;79;21331;-75
2021/03/28 01:46:12;;;;;;;69.90;34.88;;;;;;;7.39;71.36;102480.87;1817693;79;21218;-73
2021/03/28 01:48:59;;;;;;;70.52;34.65;;;;;;;7.34;71.21;102486.16;1813752;79;21316;-71
2021/03/28 01:51:49;;;;;;;65.60;33.42;;;;;;;7.28;71.28;102486.07;1796480;79;21823;-76
2021/03/28 01:54:58;;;;;;;69.47;32.48;;;;;;;7.21;71.28;102478.23;1785439;80;21712;-73
2021/03/28 01:57:51;;;;;;;62.50;32.85;;;;;;;7.17;71.49;102481.91;1785794;80;21195;-72
2021/03/28 02:00:46;;;;;;;64.72;32.98;;;;;;;7.10;71.60;102475.45;1787052;79;21383;-72
2021/03/28 02:03:44;;;;;;;90.75;39.33;;;;;;;7.08;71.68;102472.02;1799172;79;21948;-72
2021/03/28 02:06:37;;;;;;;80.40;42.17;;;;;;;7.08;71.76;102475.31;1785728;80;21873;-72
2021/03/28 02:09:48;;;;;;;92.85;43.40;;;;;;;7.00;71.68;102479.55;1785717;80;21809;-73
2021/03/28 02:12:50;;;;;;;91.13;44.73;;;;;;;6.80;71.82;102486.73;1771390;79;21174;-73
2021/03/28 02:15:40;;;;;;;86.37;44.13;;;;;;;6.71;72.19;102479.61;1751269;79;21250;-70
2021/03/28 02:18:40;;;;;;;95.95;46.55;;;;;;;6.63;72.39;102482.45;1792300;79;21373;-71
2021/03/28 02:21:58;;;;;;;93.47;47.27;;;;;;;6.52;72.56;102480.16;1731450;83;21390;-73
2021/03/28 02:25:00;;;;;;;92.95;48.75;;;;;;;6.48;72.86;102479.69;1785902;79;21320;-72
2021/03/28 02:27:52;;;;;;;86.92;40.78;;;;;;;6.50;72.96;102479.50;1787341;79;21201;-73
2021/03/28 02:30:55;;;;;;;88.70;40.20;;;;;;;6.49;72.80;102480.55;1785410;80;21218;-76
2021/03/28 02:33:47;;;;;;;93.12;42.45;;;;;;;6.41;72.96;102479.28;1790729;79;21363;-75
2021/03/28 02:36:35;;;;;;;93.83;45.47;;;;;;;6.45;73.19;102479.20;1817599;79;21196;-75
2021/03/28 02:39:30;;;;;;;86.40;43.42;;;;;;;6.44;73.32;102478.38;1798173;79;21368;-74
2021/03/28 02:42:26;;;;;;;87.02;43.25;;;;;;;6.47;73.27;102477.14;1801275;79;21376;-73
2021/03/28 02:45:35;;;;;;;81.57;39.93;;;;;;;6.37;73.15;102479.31;1792477;79;21372;-74
2021/03/28 02:48:22;;;;;;;86.60;41.13;;;;;;;6.33;73.24;102476.58;1803776;79;21366;-75
2021/03/28 02:51:14;;;;;;;92.47;43.30;;;;;;;6.24;73.26;102470.84;1815097;79;21185;-74
2021/03/28 02:54:09;;;;;;;111.47;45.63;;;;;;;6.24;73.57;102479.11;1786841;79;21252;-73
2021/03/28 02:57:20;;;;;;;112.43;47.87;;;;;;;6.23;73.58;102481.00;1799527;79;21182;-73
2021/03/28 03:00:14;;;;;;;176.20;63.30;;;;;;;6.22;73.61;102479.83;1816550;79;21237;-72
2021/03/28 03:02:57;;;;;;;193.28;71.92;;;;;;;6.12;73.52;102481.45;1777033;79;21178;-73
2021/03/28 03:05:53;;;;;;;206.38;69.40;;;;;;;6.03;73.68;102483.09;1785423;80;21229;-75
2021/03/28 03:09:05;;;;;;;181.72;69.27;;;;;;;5.94;73.79;102470.45;1731360;82;21349;-73
2021/03/28 03:12:16;;;;;;;176.07;67.77;;;;;;;5.96;74.02;102483.52;1784873;79;21838;-74
2021/03/28 03:15:27;;;;;;;202.55;67.80;;;;;;;5.97;74.13;102483.84;1785009;80;21209;-73
2021/03/28 03:18:26;;;;;;;187.97;69.40;;;;;;;6.03;74.08;102478.96;1788283;79;21217;-72
2021/03/28 03:21:20;;;;;;;174.50;65.62;;;;;;;6.03;74.06;102478.45;1793080;79;21823;-75
2021/03/28 03:24:22;;;;;;;146.27;60.80;;;;;;;6.05;73.96;102478.28;1790787;79;21281;-73
2021/03/28 03:27:21;;;;;;;107.30;49.07;;;;;;;6.00;74.46;102482.98;1793256;79;21881;-73
2021/03/28 03:30:10;;;;;;;100.43;48.47;;;;;;;5.97;75.08;102483.34;1783142;80;21241;-73
2021/03/28 03:33:13;;;;;;;115.20;53.37;;;;;;;5.97;75.79;102493.49;1784884;80;21324;-72
2021/03/28 03:36:14;;;;;;;105.30;49.30;;;;;;;5.90;76.60;102485.63;1780256;80;21250;-73
2021/03/28 03:39:11;;;;;;;103.85;49.10;;;;;;;5.85;77.00;102488.09;1762072;80;21863;-72
2021/03/28 03:42:19;;;;;;;98.75;47.50;;;;;;;5.82;77.42;102489.85;1784081;80;21187;-73
2021/03/28 03:45:44;;;;;;;96.87;49.18;;;;;;;5.80;77.97;102499.67;1783746;80;21372;-74
2021/03/28 03:48:29;;;;;;;108.92;51.10;;;;;;;5.78;78.33;102502.23;1784060;80;21185;-74
2021/03/28 03:51:22;;;;;;;101.25;50.05;;;;;;;5.79;78.59;102502.58;1784039;80;21329;-72
2021/03/28 03:54:38;;;;;;;102.85;48.50;;;;;;;5.82;78.63;102501.75;1779590;80;21328;-74
2021/03/28 03:57:36;;;;;;;98.70;46.10;;;;;;;5.89;78.59;102501.84;1783787;80;21678;-71
2021/03/28 04:00:20;;;;;;;104.65;47.20;;;;;;;5.95;78.59;102499.22;1783729;80;21814;-73
2021/03/28 04:03:04;;;;;;;91.72;47.78;;;;;;;6.03;78.58;102498.26;1783962;80;21331;-71
2021/03/28 04:06:19;;;;;;;102.80;48.65;;;;;;;6.16;78.43;102501.27;1784054;80;21321;-71
2021/03/28 04:09:17;;;;;;;99.00;47.00;;;;;;;6.27;78.09;102504.91;1783814;80;21198;-73
2021/03/28 04:12:27;;;;;;;91.00;42.30;;;;;;;6.25;77.83;102516.67;1779157;80;21190;-73
2021/03/28 04:15:37;;;;;;;92.57;45.98;;;;;;;6.17;77.81;102505.73;1747579;82;21355;-73
2021/03/28 04:18:26;;;;;;;86.60;43.48;;;;;;;6.14;77.93;102515.73;1747781;82;21383;-73
2021/03/28 04:21:09;;;;;;;92.78;47.43;;;;;;;6.11;78.03;102520.27;1717917;82;21316;-73
2021/03/28 04:24:29;;;;;;;100.78;46.10;;;;;;;6.04;78.10;102520.13;1697684;84;21459;-73
2021/03/28 04:27:27;;;;;;;86.08;42.43;;;;;;;5.92;78.31;102518.02;1730069;83;21368;-70
2021/03/28 04:30:00;;;;;;;100.67;45.47;;;;;;;5.90;78.55;102515.45;1742070;82;21344;-72
2021/03/28 04:32:55;;;;;;;97.07;45.07;;;;;;;5.90;78.65;102514.58;1756187;80;22578;-73
2021/03/28 04:35:55;;;;;;;95.73;46.23;;;;;;;5.89;78.71;102519.76;1749238;81;21375;-72
2021/03/28 04:38:44;;;;;;;96.87;46.03;;;;;;;5.86;78.77;102522.36;1745317;81;21376;-72
2021/03/28 04:41:40;;;;;;;92.27;43.67;;;;;;;5.85;78.85;102530.80;1742179;82;21200;-70
2021/03/28 04:44:45;;;;;;;88.78;44.42;;;;;;;5.85;78.94;102532.18;1754419;82;21207;-71
2021/03/28 04:47:39;;;;;;;;;;;;;;;5.85;79.02;102532.18;1766068;79;21740;-73
2021/03/28 04:51:09;;;;;;;102.27;48.68;;;;;;;5.86;79.08;102535.30;1771641;80;20608;-74
2021/03/28 04:54:27;;;;;;;91.30;44.13;;;;;;;5.86;79.16;102534.76;1766512;79;21364;-73
2021/03/28 04:57:19;;;;;;;85.77;41.00;;;;;;;5.88;78.95;102537.34;1784775;79;21197;-74
2021/03/28 05:00:36;;;;;;;93.37;44.03;;;;;;;5.89;78.82;102538.55;1715701;83;21597;-71
2021/03/28 05:03:40;;;;;;;87.47;41.50;;;;;;;5.97;78.60;102538.47;1717360;83;21341;-72
2021/03/28 05:06:19;;;;;;;82.77;39.60;;;;;;;6.05;78.35;102547.20;1780064;79;21684;-72
2021/03/28 05:09:17;;;;;;;88.67;43.20;;;;;;;6.11;78.08;102541.78;1767938;80;21372;-72
2021/03/28 05:12:15;;;;;;;86.57;42.67;;;;;;;6.15;77.94;102541.75;1767779;80;21320;-73
2021/03/28 05:15:03;;;;;;;93.35;42.75;;;;;;;6.18;77.86;102544.66;1747760;81;21419;-72
2021/03/28 05:17:58;;;;;;;87.50;41.10;;;;;;;6.31;78.00;102560.05;1758308;80;21290;-68
2021/03/28 05:21:16;;;;;;;81.63;42.30;;;;;;;6.53;77.56;102553.09;1714128;83;21228;-71
2021/03/28 05:24:31;;;;;;;87.67;42.23;;;;;;;6.77;77.18;102557.51;1671375;80;21187;-69
2021/03/28 05:27:18;;;;;;;92.17;42.78;;;;;;;7.07;76.20;102557.30;1720560;83;21419;-72
2021/03/28 05:30:47;;;;;;;82.30;39.83;;;;;;;7.38;75.44;102560.16;1685541;84;21280;-71
2021/03/28 05:33:55;;;;;;;79.20;42.20;;;;;;;7.63;74.95;102552.36;1733118;81;21383;-70
2021/03/28 05:37:02;;;;;;;83.15;44.23;;;;;;;8.01;73.38;102551.92;1728910;83;21343;-71
2021/03/28 05:40:04;;;;;;;76.28;40.10;;;;;;;8.27;72.05;102553.58;1774467;80;21183;-71
2021/03/28 05:43:16;;;;;;;78.67;39.67;;;;;;;8.55;71.18;102558.61;1771352;80;21234;-73
2021/03/28 05:46:35;;;;;;;82.47;41.25;;;;;;;8.81;69.26;102560.72;1768265;80;21308;-72
2021/03/28 05:49:45;;;;;;;73.75;36.88;;;;;;;9.02;68.77;102562.88;1767625;80;21355;-73
2021/03/28 05:52:55;;;;;;;77.17;37.35;;;;;;;9.24;68.62;102564.47;1763309;81;21226;-73
2021/03/28 05:55:55;;;;;;;79.07;39.18;;;;;;;9.49;68.08;102565.64;1768837;80;21177;-73
2021/03/28 05:58:58;;;;;;;76.90;37.53;;;;;;;9.81;67.14;102568.21;1768898;80;21374;-76
2021/03/28 06:02:17;;;;;;;86.87;48.30;;;;;;;10.06;66.13;102561.91;1740332;80;21822;-74
2021/03/28 06:05:34;;;;;;;85.53;46.08;;;;;;;10.27;65.03;102561.70;1726914;83;21343;-74
2021/03/28 06:08:30;;;;;;;83.62;40.73;;;;;;;10.43;64.01;102565.98;1712355;83;21395;-73
2021/03/28 06:11:58;;;;;;;70.00;36.80;;;;;;;10.49;63.37;102563.22;1714775;83;21199;-74
2021/03/28 06:15:14;;;;;;;73.57;36.70;;;;;;;10.60;63.42;102566.75;1751964;81;21328;-74
2021/03/28 06:18:24;;;;;;;80.07;36.65;;;;;;;10.76;62.94;102568.22;1721631;82;21171;-75
2021/03/28 06:21:07;;;;;;;71.37;35.83;;;;;;;10.91;62.88;102571.08;1739982;82;21194;-74
2021/03/28 06:23:45;;;;;;;71.73;35.20;;;;;;;11.15;62.42;102569.00;1751735;80;21229;-73
2021/03/28 06:26:58;;;;;;;72.85;37.05;;;;;;;11.31;62.01;102566.27;1730239;82;21317;-74
2021/03/28 06:29:59;;;;;;;68.35;37.83;;;;;;;11.42;61.78;102569.73;1761279;80;21468;-73
2021/03/28 06:32:42;;;;;;;62.03;34.78;;;;;;;11.61;60.72;102575.26;1738324;82;21429;-74
2021/03/28 06:35:40;;;;;;;68.12;37.67;;;;;;;11.77;59.98;102570.59;1736808;82;21663;-72
2021/03/28 06:39:00;;;;;;;76.25;38.73;;;;;;;11.77;59.69;102575.28;1739423;82;21336;-74
2021/03/28 06:41:58;;;;;;;69.62;36.90;;;;;;;11.86;59.32;102577.59;1752058;81;21332;-74
2021/03/28 06:45:11;;;;;;;63.20;33.65;;;;;;;11.96;59.33;102579.36;1761434;80;21191;-72
2021/03/28 06:48:14;;;;;;;66.07;33.40;;;;;;;11.97;59.26;102574.10;1733748;82;21337;-74
2021/03/28 06:51:20;;;;;;;75.92;38.88;;;;;;;12.05;58.78;102573.83;1737574;82;21451;-74
2021/03/28 06:54:09;;;;;;;65.52;35.08;;;;;;;12.05;58.53;102576.61;1733051;80;21696;-75
2021/03/28 06:57:23;;;;;;;78.00;39.25;;;;;;;12.15;58.52;102585.34;1741017;82;21713;-73
2021/03/28 07:00:36;;;;;;;66.40;35.85;;;;;;;12.18;58.17;102584.88;1741602;82;21236;-72
2021/03/28 07:03:39;;;;;;;75.05;38.33;;;;;;;12.31;58.10;102583.94;1732691;82;21354;-71
2021/03/28 07:06:34;;;;;;;66.87;35.08;;;;;;;12.32;58.79;102585.13;1718916;82;21714;-70
2021/03/28 07:09:29;;;;;;;80.65;37.67;;;;;;;12.43;58.44;102581.61;1739149;81;21218;-71
2021/03/28 07:12:23;;;;;;;62.23;30.55;;;;;;;12.44;58.16;102581.05;1750843;80;21333;-71
2021/03/28 07:15:28;;;;;;;66.42;32.48;;;;;;;12.37;59.08;102576.95;1746052;81;21660;-70
2021/03/28 07:18:36;;;;;;;;;;;;;;;12.38;59.29;102580.56;1790671;79;21238;-75
2021/03/28 07:21:45;;;;;;;71.40;33.58;;;;;;;12.34;59.48;102565.41;1797894;79;20218;-74
2021/03/28 07:24:57;;;;;;;72.00;31.73;;;;;;;12.30;59.57;102571.09;1786652;79;21254;-70
2021/03/28 07:28:03;;;;;;;60.85;31.68;;;;;;;12.29;59.91;102566.62;1729536;79;21341;-70
2021/03/28 07:31:24;;;;;;;55.10;30.85;;;;;;;12.28;60.10;102568.53;1764609;81;21769;-72
2021/03/28 07:34:33;;;;;;;61.48;31.62;;;;;;;12.23;60.13;102571.13;1825996;78;21805;-73
2021/03/28 07:37:45;;;;;;;60.20;28.70;;;;;;;12.23;60.60;102566.95;1753824;78;21228;-78
2021/03/28 07:40:25;;;;;;;59.63;32.50;;;;;;;12.15;60.68;102567.23;1825877;78;21224;-73
2021/03/28 07:43:36;;;;;;;55.17;28.42;;;;;;;12.16;60.71;102571.72;1761458;81;21316;-75
2021/03/28 07:46:34;;;;;;;65.03;29.95;;;;;;;12.10;61.06;102567.05;1813885;79;21367;-76
2021/03/28 07:49:33;;;;;;;61.95;30.48;;;;;;;12.04;61.06;102576.86;1817559;79;21166;-73
2021/03/28 07:52:34;;;;;;;69.00;30.97;;;;;;;11.96;61.44;102571.53;1801717;79;21356;-74
2021/03/28 07:55:30;;;;;;;68.22;31.55;;;;;;;11.95;61.41;102575.40;1813853;79;21410;-73
2021/03/28 07:58:28;;;;;;;59.80;30.60;;;;;;;12.02;61.69;102574.81;1789129;79;21339;-75
2021/03/28 08:01:32;;;;;;;54.77;28.67;;;;;;;12.12;61.49;102574.66;1817863;79;21177;-76
2021/03/28 08:04:41;;;;;;;63.87;30.97;;;;;;;12.17;61.15;102574.82;1814104;79;21316;-78
2021/03/28 08:07:41;;;;;;;41.25;22.37;;;;;;;12.25;60.91;102566.74;1817659;79;21379;-77
2021/03/28 08:10:39;;;;;;;41.77;23.40;;;;;;;12.28;59.76;102576.89;1766467;79;21327;-77
2021/03/28 08:13:35;;;;;;;37.55;21.75;;;;;;;12.21;59.96;102569.66;1817712;79;21288;-77
2021/03/28 08:16:40;;;;;;;49.33;25.40;;;;;;;12.09;60.11;102573.70;1794080;79;21348;-77
2021/03/28 08:19:57;;;;;;;57.65;27.35;;;;;;;11.94;60.60;102569.00;1784198;80;21198;-76
2021/03/28 08:23:21;;;;;;;52.23;24.07;;;;;;;11.95;60.90;102565.13;1784057;80;21178;-77
2021/03/28 08:26:25;;;;;;;47.90;24.37;;;;;;;12.02;60.13;102563.68;1784053;80;21834;-78
2021/03/28 08:29:24;;;;;;;42.05;23.42;;;;;;;12.00;59.55;102556.97;1784016;80;21221;-78
2021/03/28 08:32:16;;;;;;;47.60;24.07;;;;;;;12.01;59.87;102561.98;1764654;81;21187;-74
2021/03/28 08:35:19;;;;;;;37.08;20.05;;;;;;;11.97;59.39;102564.88;1789924;80;21339;-73
2021/03/28 08:38:51;;;;;;;32.83;18.82;;;;;;;11.94;58.86;102568.13;1794198;80;21308;-72
2021/03/28 08:42:02;;;;;;;39.88;19.87;;;;;;;11.96;58.91;102564.58;1795592;80;21331;-72
2021/03/28 08:45:06;;;;;;;30.55;14.50;;;;;;;11.97;58.33;102569.92;1795589;80;21324;-76
2021/03/28 08:48:13;;;;;;;33.30;16.62;;;;;;;11.93;57.73;102570.05;1783890;80;21698;-77
2021/03/28 08:51:29;;;;;;;31.97;17.27;;;;;;;11.89;57.64;102563.24;1747460;81;21702;-77
2021/03/28 08:54:29;;;;;;;30.82;16.52;;;;;;;11.91;57.43;102552.73;1765324;81;21204;-79
2021/03/28 08:57:26;;;;;;;36.98;18.02;;;;;;;11.96;57.57;102557.61;1765396;81;21757;-78
2021/03/28 09:00:38;;;;;;;32.63;16.45;;;;;;;12.00;57.47;102551.92;1765190;81;21318;-77
2021/03/28 09:03:32;;;;;;;30.88;15.58;;;;;;;12.04;57.14;102541.50;1765584;81;21343;-76
2021/03/28 09:06:12;;;;;;;34.10;15.90;;;;;;;12.12;56.88;102547.34;1765429;81;21268;-78
2021/03/28 09:09:07;;;;;;;35.03;16.37;;;;;;;12.15;56.22;102546.36;1762116;81;21344;-77
2021/03/28 09:12:06;;;;;;;36.48;16.48;;;;;;;12.14;56.11;102540.48;1763021;81;21333;-77
2021/03/28 09:14:50;;;;;;;34.25;16.00;;;;;;;12.17;56.42;102536.39;1704758;84;21394;-78
2021/03/28 09:17:54;;;;;;;41.70;16.42;;;;;;;12.19;56.27;102529.52;1745962;81;21715;-79
2021/03/28 09:20:59;;;;;;;27.05;14.45;;;;;;;12.12;56.07;102528.72;1724885;83;21283;-76
2021/03/28 09:24:24;;;;;;;30.23;14.33;;;;;;;12.04;56.09;102535.09;1755475;82;21339;-76
2021/03/28 09:27:08;;;;;;;35.35;17.25;;;;;;;11.90;56.46;102530.15;1723638;83;21209;-75
2021/03/28 09:30:15;;;;;;;33.15;16.23;;;;;;;11.85;56.98;102527.17;1725147;83;21193;-75
2021/03/28 09:33:06;;;;;;;32.60;15.28;;;;;;;11.82;56.96;102525.37;1755075;82;21209;-77
2021/03/28 09:36:06;;;;;;;39.98;17.20;;;;;;;11.81;57.35;102528.69;1720696;83;21289;-77
2021/03/28 09:39:13;;;;;;;37.17;19.10;;;;;;;11.92;57.46;102525.75;1725537;83;21272;-76
2021/03/28 09:42:20;;;;;;;31.40;17.40;;;;;;;12.02;56.62;102524.70;1723649;83;21352;-76
2021/03/28 09:45:33;;;;;;;33.88;18.07;;;;;;;12.07;56.48;102524.36;1725077;83;21221;-77
2021/03/28 09:48:40;;;;;;;32.15;16.73;;;;;;;12.10;56.53;102519.72;1755029;82;21734;-77
2021/03/28 09:51:39;;;;;;;35.85;17.05;;;;;;;12.13;56.84;102508.14;1723510;83;21269;-77
2021/03/28 09:54:42;;;;;;;43.87;19.75;;;;;;;12.21;56.45;102505.07;1725035;83;21300;-76
2021/03/28 09:57:50;;;;;;;36.63;17.62;;;;;;;12.30;56.11;102505.64;1760807;80;21329;-75
2021/03/28 10:01:20;;;;;;;32.23;17.07;;;;;;;12.37;56.14;102507.83;1752969;82;21196;-76
2021/03/28 10:04:07;;;;;;;35.63;19.92;;;;;;;12.47;56.26;102502.60;1735806;82;21335;-74
2021/03/28 10:06:40;;;;;;;35.23;18.70;;;;;;;12.62;55.77;102496.98;1795999;80;21321;-77
2021/03/28 10:09:22;;;;;;;56.65;35.38;;;;;;;12.70;55.74;102495.28;1797909;80;21317;-75
2021/03/28 10:12:14;;;;;;;35.25;18.17;;;;;;;12.78;55.79;102491.35;1784105;80;21201;-75
2021/03/28 10:14:59;;;;;;;44.63;20.40;;;;;;;12.88;55.70;102490.25;1785865;79;21320;-77
2021/03/28 10:17:46;;;;;;;35.05;18.20;;;;;;;13.00;55.05;102489.30;1750425;82;21753;-76
2021/03/28 10:20:41;;;;;;;37.55;18.27;;;;;;;13.06;54.63;102484.19;1740679;82;21215;-76
2021/03/28 10:23:24;;;;;;;35.65;18.98;;;;;;;13.08;54.37;102483.40;1752648;82;21687;-76
2021/03/28 10:26:53;;;;;;;41.28;19.12;;;;;;;13.11;54.19;102480.69;1754181;82;21193;-76
2021/03/28 10:29:53;;;;;;;42.17;20.95;;;;;;;13.11;54.49;102475.98;1741910;81;21657;-77
2021/03/28 10:33:10;;;;;;;49.48;21.93;;;;;;;13.20;54.34;102475.13;1780176;79;21309;-80
2021/03/28 10:36:44;;;;;;;61.23;24.37;;;;;;;13.22;54.25;102470.15;1766744;80;21360;-80
2021/03/28 10:40:15;;;;;;;40.38;20.10;;;;;;;13.18;54.18;102471.16;1783699;79;21376;-79
2021/03/28 10:43:17;;;;;;;48.48;23.30;;;;;;;13.10;54.54;102468.70;1787677;79;21858;-80
2021/03/28 10:46:30;;;;;;;54.75;24.30;;;;;;;13.12;54.29;102472.62;1789097;79;21320;-79
2021/03/28 10:49:19;;;;;;;46.92;22.77;;;;;;;13.07;54.78;102466.36;1782399;79;21731;-78
2021/03/28 10:52:49;;;;;;;46.18;24.23;;;;;;;13.05;54.60;102469.94;1722653;82;21260;-80
2021/03/28 10:56:04;;;;;;;45.55;23.95;;;;;;;13.05;54.76;102467.67;1691677;84;21372;-79
2021/03/28 10:59:05;;;;;;;48.38;24.02;;;;;;;13.05;54.99;102463.49;1741587;82;21253;-76
2021/03/28 11:02:18;;;;;;;67.32;26.70;;;;;;;13.04;55.29;102461.80;1740196;82;21316;-76
2021/03/28 11:05:29;;;;;;;48.42;24.10;;;;;;;13.04;55.68;102464.05;1761583;80;21221;-74
2021/03/28 11:08:32;;;;;;;44.60;22.73;;;;;;;13.09;55.92;102455.81;1751516;81;21253;-76
2021/03/28 11:11:27;;;;;;;39.75;22.75;;;;;;;13.15;55.97;102452.09;1779266;79;21312;-75
2021/03/28 11:14:30;;;;;;;41.25;20.05;;;;;;;13.20;55.68;102445.27;1770603;81;21336;-78
2021/03/28 11:17:32;;;;;;;37.85;19.60;;;;;;;13.20;55.50;102441.65;1764718;79;21409;-77
2021/03/28 11:20:26;;;;;;;42.10;22.67;;;;;;;13.17;55.55;102439.31;1779125;79;21392;-76
2021/03/28 11:23:09;;;;;;;35.35;21.45;;;;;;;13.18;55.51;102436.30;1771896;80;21324;-77
2021/03/28 11:26:18;;;;;;;43.52;22.10;;;;;;;13.21;55.58;102437.20;1771601;80;21387;-77
2021/03/28 11:29:32;;;;;;;46.23;22.05;;;;;;;13.29;55.71;102438.30;1752597;81;21710;-76
2021/03/28 11:32:54;;;;;;;60.33;23.42;;;;;;;13.46;56.22;102440.71;1775078;79;21433;-76
2021/03/28 11:35:45;;;;;;;37.93;20.62;;;;;;;13.60;54.68;102428.29;1770521;81;21692;-77
2021/03/28 11:38:23;;;;;;;52.80;22.98;;;;;;;13.68;53.70;102429.34;1783103;79;21807;-79
2021/03/28 11:41:16;;;;;;;50.08;22.48;;;;;;;13.71;53.23;102428.01;1775479;79;21716;-77
2021/03/28 11:43:54;;;;;;;52.75;22.75;;;;;;;13.72;52.94;102413.82;1779263;79;21440;-77
2021/03/28 11:46:48;;;;;;;45.15;21.85;;;;;;;13.78;52.67;102418.45;1770696;81;21190;-78
2021/03/28 11:49:20;;;;;;;41.50;22.05;;;;;;;13.85;52.37;102424.77;1728680;79;21415;-77
2021/03/28 11:51:58;;;;;;;40.80;22.22;;;;;;;13.90;52.14;102420.72;1779417;79;21159;-78
2021/03/28 11:54:31;;;;;;;44.83;23.55;;;;;;;13.89;52.25;102417.63;1779492;79;21755;-76
2021/03/28 11:57:17;;;;;;;43.07;22.73;;;;;;;13.82;52.08;102423.84;1771010;81;21336;-76
2021/03/28 11:59:53;;;;;;;39.35;21.10;;;;;;;13.70;52.50;102412.35;1775164;79;21671;-76
2021/03/28 12:02:31;;;;;;;38.40;21.80;;;;;;;13.65;52.63;102410.81;1752368;81;21194;-75
2021/03/28 12:05:14;;;;;;;45.17;24.05;;;;;;;13.61;52.71;102409.05;1778949;79;21324;-74
2021/03/28 12:07:48;;;;;;;48.85;24.12;;;;;;;13.59;52.84;102407.05;1773539;79;21324;-72
2021/03/28 12:10:34;;;;;;;43.30;23.57;;;;;;;13.62;53.08;102394.56;1770216;79;21399;-74
2021/03/28 12:13:45;;;;;;;39.80;21.48;;;;;;;13.67;53.03;102387.69;1775060;79;21376;-74
2021/03/28 12:16:18;;;;;;;49.25;26.05;;;;;;;13.75;53.06;102390.16;1775064;79;21368;-74
2021/03/28 12:18:54;;;;;;;45.25;24.40;;;;;;;13.89;53.15;102391.63;1770716;79;21346;-76
2021/03/28 12:21:36;;;;;;;42.03;24.40;;;;;;;14.01;52.85;102397.55;1775640;80;21233;-75
2021/03/28 12:24:10;;;;;;;41.50;22.87;;;;;;;14.04;52.40;102390.59;1775716;80;21238;-75
2021/03/28 12:26:48;;;;;;;55.48;24.20;;;;;;;14.29;53.89;102382.89;1777474;80;21217;-75
2021/03/28 12:29:31;;;;;;;39.55;23.83;;;;;;;14.29;53.89;102382.89;1776438;80;21241;-73
2021/03/28 12:32:19;;;;;;;52.10;27.50;;;;;;;14.52;53.52;102375.86;1779955;80;21167;-73
2021/03/28 12:34:57;;;;;;;60.05;26.05;;;;;;;14.59;52.16;102382.17;1733137;80;21726;-74
2021/03/28 12:37:30;;;;;;;59.90;28.00;;;;;;;14.59;51.84;102371.84;1773768;80;21198;-76
2021/03/28 12:40:06;;;;;;;45.23;24.37;;;;;;;14.62;51.82;102365.78;1776814;80;21775;-75
2021/03/28 12:42:44;;;;;;;56.30;30.25;;;;;;;14.68;51.95;102369.53;1747717;82;21230;-77
2021/03/28 12:45:30;;;;;;;70.55;33.95;;;;;;;14.70;51.78;102358.40;1775829;80;21245;-76
2021/03/28 12:48:06;;;;;;;54.42;28.47;;;;;;;14.71;51.11;102347.52;1748205;82;21869;-75
2021/03/28 12:50:46;;;;;;;59.55;31.15;;;;;;;14.69;51.28;102344.12;1778457;80;21309;-76
2021/03/28 12:53:21;;;;;;;68.75;32.53;;;;;;;14.82;52.16;102356.95;1749595;82;21836;-74
2021/03/28 12:56:00;;;;;;;57.78;28.17;;;;;;;14.96;52.13;102350.83;1778271;80;21685;-76
2021/03/28 12:58:43;;;;;;;73.57;34.45;;;;;;;15.04;52.87;102342.03;1777423;80;21218;-78
2021/03/28 13:01:34;;;;;;;70.00;32.88;;;;;;;15.09;51.25;102337.95;1776399;80;21298;-75
2021/03/28 13:04:20;;;;;;;73.30;32.70;;;;;;;15.23;52.07;102329.56;1746616;82;21395;-76
2021/03/28 13:06:53;;;;;;;57.40;29.87;;;;;;;15.23;52.07;102329.56;1776308;80;21221;-74
2021/03/28 13:09:39;;;;;;;54.08;29.55;;;;;;;15.44;51.32;102330.80;1759450;81;21126;-77
2021/03/28 13:12:17;;;;;;;;;;;;;;;15.66;50.01;102331.23;1802127;79;21187;-75
2021/03/28 13:14:50;;;;;;;55.80;27.62;;;;;;;15.85;49.57;102325.66;1787736;80;20187;-77
2021/03/28 13:17:34;;;;;;;51.30;27.00;;;;;;;16.07;49.03;102325.73;1759925;80;21218;-75
2021/03/28 13:20:22;;;;;;;55.50;28.35;;;;;;;16.23;48.17;102324.30;1796250;78;21390;-79
2021/03/28 13:23:08;;;;;;;60.33;30.82;;;;;;;16.38;47.84;102321.19;1784351;80;21321;-75
2021/03/28 13:25:42;;;;;;;61.80;31.40;;;;;;;16.51;46.92;102317.17;1766993;80;21190;-75
2021/03/28 13:28:23;;;;;;;64.32;32.73;;;;;;;16.56;45.51;102318.08;1749362;81;21299;-75